sensor_id;sensor_type;location;lat;lon;timestamp;P1;durP1;ratioP1;P2;durP2;ratioP2
30872;SDS011;17579;42.690;2.586;2023-10-19T00:02:23;6.47;;;3.28;;
30872;SDS011;17579;42.690;2.586;2023-10-19T00:04:48;6.05;;;3.20;;
30872;SDS011;17579;42.690;2.586;2023-10-19T00:13:15;6.05;;;3.42;;
30872;SDS011;17579;42.690;2.586;2023-10-19T00:15:41;6.97;;;3.40;;
30872;SDS011;17579;42.690;2.586;2023-10-19T00:18:11;4.57;;;2.97;;
30872;SDS011;17579;42.690;2.586;2023-10-19T00:20:37;6.85;;;3.55;;
30872;SDS011;17579;42.690;2.586;2023-10-19T00:23:16;5.47;;;3.53;;
30872;SDS011;17579;42.690;2.586;2023-10-19T00:25:45;8.38;;;3.97;;
30872;SDS011;17579;42.690;2.586;2023-10-19T00:28:25;8.98;;;3.47;;
30872;SDS011;17579;42.690;2.586;2023-10-19T00:30:53;5.15;;;3.22;;
30872;SDS011;17579;42.690;2.586;2023-10-19T00:33:31;7.25;;;3.45;;
30872;SDS011;17579;42.690;2.586;2023-10-19T00:36:04;4.85;;;3.17;;
30872;SDS011;17579;42.690;2.586;2023-10-19T00:38:55;6.47;;;3.10;;
30872;SDS011;17579;42.690;2.586;2023-10-19T00:41:23;6.78;;;3.20;;
30872;SDS011;17579;42.690;2.586;2023-10-19T00:43:57;10.52;;;4.07;;
30872;SDS011;17579;42.690;2.586;2023-10-19T00:46:24;6.32;;;3.03;;
30872;SDS011;17579;42.690;2.586;2023-10-19T00:48:57;5.40;;;2.88;;
30872;SDS011;17579;42.690;2.586;2023-10-19T00:54:08;6.78;;;2.85;;
30872;SDS011;17579;42.690;2.586;2023-10-19T00:56:35;5.85;;;2.83;;
30872;SDS011;17579;42.690;2.586;2023-10-19T00:59:14;4.32;;;2.65;;
30872;SDS011;17579;42.690;2.586;2023-10-19T01:01:45;5.30;;;2.65;;
30872;SDS011;17579;42.690;2.586;2023-10-19T01:04:21;7.40;;;3.38;;
30872;SDS011;17579;42.690;2.586;2023-10-19T01:06:48;5.18;;;2.83;;
30872;SDS011;17579;42.690;2.586;2023-10-19T01:09:15;4.53;;;2.90;;
30872;SDS011;17579;42.690;2.586;2023-10-19T01:11:58;6.25;;;3.20;;
30872;SDS011;17579;42.690;2.586;2023-10-19T01:14:43;8.45;;;3.70;;
30872;SDS011;17579;42.690;2.586;2023-10-19T01:17:09;6.50;;;3.88;;
30872;SDS011;17579;42.690;2.586;2023-10-19T01:19:39;7.35;;;3.60;;
30872;SDS011;17579;42.690;2.586;2023-10-19T01:22:15;8.30;;;3.72;;
30872;SDS011;17579;42.690;2.586;2023-10-19T01:24:43;9.23;;;4.30;;
30872;SDS011;17579;42.690;2.586;2023-10-19T01:27:08;6.93;;;3.72;;
30872;SDS011;17579;42.690;2.586;2023-10-19T01:29:53;7.72;;;3.83;;
30872;SDS011;17579;42.690;2.586;2023-10-19T01:32:18;9.23;;;4.43;;
30872;SDS011;17579;42.690;2.586;2023-10-19T01:34:47;7.32;;;4.07;;
30872;SDS011;17579;42.690;2.586;2023-10-19T01:37:33;7.72;;;3.90;;
30872;SDS011;17579;42.690;2.586;2023-10-19T01:40:03;8.50;;;4.28;;
30872;SDS011;17579;42.690;2.586;2023-10-19T01:42:29;8.77;;;4.50;;
30872;SDS011;17579;42.690;2.586;2023-10-19T01:44:56;7.40;;;3.75;;
30872;SDS011;17579;42.690;2.586;2023-10-19T01:47:21;11.98;;;4.93;;
30872;SDS011;17579;42.690;2.586;2023-10-19T01:49:47;8.18;;;4.15;;
30872;SDS011;17579;42.690;2.586;2023-10-19T01:52:20;7.10;;;3.90;;
30872;SDS011;17579;42.690;2.586;2023-10-19T01:54:49;10.57;;;4.28;;
30872;SDS011;17579;42.690;2.586;2023-10-19T01:57:35;10.20;;;4.35;;
30872;SDS011;17579;42.690;2.586;2023-10-19T02:02:52;8.82;;;4.30;;
30872;SDS011;17579;42.690;2.586;2023-10-19T02:08:07;10.32;;;4.35;;
30872;SDS011;17579;42.690;2.586;2023-10-19T02:13:12;9.57;;;4.03;;
30872;SDS011;17579;42.690;2.586;2023-10-19T02:15:42;8.68;;;4.13;;
30872;SDS011;17579;42.690;2.586;2023-10-19T02:18:31;8.23;;;4.10;;
30872;SDS011;17579;42.690;2.586;2023-10-19T02:21:03;8.77;;;4.10;;
30872;SDS011;17579;42.690;2.586;2023-10-19T02:23:32;7.78;;;4.05;;
30872;SDS011;17579;42.690;2.586;2023-10-19T02:25:59;12.38;;;4.18;;
30872;SDS011;17579;42.690;2.586;2023-10-19T02:28:31;11.48;;;5.15;;
30872;SDS011;17579;42.690;2.586;2023-10-19T02:31:01;12.52;;;4.57;;
30872;SDS011;17579;42.690;2.586;2023-10-19T02:33:42;10.20;;;5.00;;
30872;SDS011;17579;42.690;2.586;2023-10-19T02:36:18;11.32;;;4.45;;
30872;SDS011;17579;42.690;2.586;2023-10-19T02:38:48;8.80;;;4.40;;
30872;SDS011;17579;42.690;2.586;2023-10-19T02:41:17;10.52;;;4.32;;
30872;SDS011;17579;42.690;2.586;2023-10-19T02:43:51;9.38;;;4.60;;
30872;SDS011;17579;42.690;2.586;2023-10-19T02:46:37;10.73;;;4.70;;
30872;SDS011;17579;42.690;2.586;2023-10-19T02:49:11;11.30;;;4.85;;
30872;SDS011;17579;42.690;2.586;2023-10-19T02:54:35;9.43;;;4.25;;
30872;SDS011;17579;42.690;2.586;2023-10-19T02:57:01;13.30;;;5.32;;
30872;SDS011;17579;42.690;2.586;2023-10-19T02:59:41;13.73;;;5.15;;
30872;SDS011;17579;42.690;2.586;2023-10-19T03:02:07;9.77;;;4.95;;
30872;SDS011;17579;42.690;2.586;2023-10-19T03:04:42;11.23;;;4.70;;
30872;SDS011;17579;42.690;2.586;2023-10-19T03:07:11;9.25;;;4.50;;
30872;SDS011;17579;42.690;2.586;2023-10-19T03:09:40;10.23;;;5.03;;
30872;SDS011;17579;42.690;2.586;2023-10-19T03:12:12;11.48;;;4.25;;
30872;SDS011;17579;42.690;2.586;2023-10-19T03:14:39;9.95;;;4.35;;
30872;SDS011;17579;42.690;2.586;2023-10-19T03:17:06;9.38;;;4.85;;
30872;SDS011;17579;42.690;2.586;2023-10-19T03:19:35;9.25;;;4.20;;
30872;SDS011;17579;42.690;2.586;2023-10-19T03:22:07;11.52;;;4.55;;
30872;SDS011;17579;42.690;2.586;2023-10-19T03:24:36;9.10;;;4.47;;
30872;SDS011;17579;42.690;2.586;2023-10-19T03:27:03;10.90;;;4.47;;
30872;SDS011;17579;42.690;2.586;2023-10-19T03:29:38;9.10;;;4.35;;
30872;SDS011;17579;42.690;2.586;2023-10-19T03:32:07;11.15;;;4.70;;
30872;SDS011;17579;42.690;2.586;2023-10-19T03:37:45;9.73;;;4.85;;
30872;SDS011;17579;42.690;2.586;2023-10-19T03:40:19;14.57;;;5.25;;
30872;SDS011;17579;42.690;2.586;2023-10-19T03:42:57;10.82;;;4.82;;
30872;SDS011;17579;42.690;2.586;2023-10-19T03:45:23;8.70;;;4.22;;
30872;SDS011;17579;42.690;2.586;2023-10-19T03:47:50;11.27;;;4.32;;
30872;SDS011;17579;42.690;2.586;2023-10-19T03:50:18;13.20;;;4.75;;
30872;SDS011;17579;42.690;2.586;2023-10-19T03:52:48;12.70;;;5.43;;
30872;SDS011;17579;42.690;2.586;2023-10-19T03:55:16;11.63;;;5.47;;
30872;SDS011;17579;42.690;2.586;2023-10-19T03:57:43;11.05;;;4.90;;
30872;SDS011;17579;42.690;2.586;2023-10-19T04:00:10;10.07;;;4.60;;
30872;SDS011;17579;42.690;2.586;2023-10-19T04:02:40;9.32;;;4.88;;
30872;SDS011;17579;42.690;2.586;2023-10-19T04:05:08;13.10;;;4.60;;
30872;SDS011;17579;42.690;2.586;2023-10-19T04:07:39;9.75;;;4.65;;
30872;SDS011;17579;42.690;2.586;2023-10-19T04:10:27;12.25;;;4.93;;
30872;SDS011;17579;42.690;2.586;2023-10-19T04:13:06;9.38;;;4.40;;
30872;SDS011;17579;42.690;2.586;2023-10-19T04:15:35;10.02;;;4.60;;
30872;SDS011;17579;42.690;2.586;2023-10-19T04:18:04;15.52;;;4.47;;
30872;SDS011;17579;42.690;2.586;2023-10-19T04:20:52;24.25;;;6.70;;
30872;SDS011;17579;42.690;2.586;2023-10-19T04:23:18;19.48;;;6.90;;
30872;SDS011;17579;42.690;2.586;2023-10-19T04:26:04;15.43;;;7.20;;
30872;SDS011;17579;42.690;2.586;2023-10-19T04:28:31;53.63;;;8.15;;
30872;SDS011;17579;42.690;2.586;2023-10-19T04:31:03;38.05;;;8.98;;
30872;SDS011;17579;42.690;2.586;2023-10-19T04:33:31;151.30;;;14.15;;
30872;SDS011;17579;42.690;2.586;2023-10-19T04:38:50;39.15;;;9.32;;
30872;SDS011;17579;42.690;2.586;2023-10-19T04:41:17;204.52;;;16.95;;
30872;SDS011;17579;42.690;2.586;2023-10-19T04:43:53;353.63;;;21.67;;
30872;SDS011;17579;42.690;2.586;2023-10-19T04:46:19;246.35;;;20.83;;
30872;SDS011;17579;42.690;2.586;2023-10-19T04:48:48;432.98;;;29.63;;
30872;SDS011;17579;42.690;2.586;2023-10-19T04:51:15;539.78;;;34.20;;
30872;SDS011;17579;42.690;2.586;2023-10-19T04:53:45;36.75;;;8.60;;
30872;SDS011;17579;42.690;2.586;2023-10-19T04:56:10;406.83;;;25.27;;
30872;SDS011;17579;42.690;2.586;2023-10-19T04:58:37;310.25;;;22.88;;
30872;SDS011;17579;42.690;2.586;2023-10-19T05:01:12;263.80;;;20.63;;
30872;SDS011;17579;42.690;2.586;2023-10-19T05:03:41;219.38;;;17.10;;
30872;SDS011;17579;42.690;2.586;2023-10-19T05:06:07;87.72;;;10.63;;
30872;SDS011;17579;42.690;2.586;2023-10-19T05:08:34;20.10;;;6.65;;
30872;SDS011;17579;42.690;2.586;2023-10-19T05:11:01;97.75;;;9.60;;
30872;SDS011;17579;42.690;2.586;2023-10-19T05:13:27;65.72;;;8.93;;
30872;SDS011;17579;42.690;2.586;2023-10-19T05:16:16;22.17;;;7.05;;
30872;SDS011;17579;42.690;2.586;2023-10-19T05:18:42;212.93;;;15.63;;
30872;SDS011;17579;42.690;2.586;2023-10-19T05:21:10;321.80;;;19.63;;
30872;SDS011;17579;42.690;2.586;2023-10-19T05:23:37;210.13;;;14.75;;
30872;SDS011;17579;42.690;2.586;2023-10-19T05:26:06;43.00;;;7.88;;
30872;SDS011;17579;42.690;2.586;2023-10-19T05:28:44;222.90;;;16.02;;
30872;SDS011;17579;42.690;2.586;2023-10-19T05:31:54;93.30;;;9.45;;
30872;SDS011;17579;42.690;2.586;2023-10-19T05:34:20;99.70;;;10.75;;
30872;SDS011;17579;42.690;2.586;2023-10-19T05:36:49;151.13;;;12.90;;
30872;SDS011;17579;42.690;2.586;2023-10-19T05:39:16;338.15;;;20.60;;
30872;SDS011;17579;42.690;2.586;2023-10-19T05:41:46;435.67;;;26.23;;
30872;SDS011;17579;42.690;2.586;2023-10-19T05:44:14;383.02;;;25.45;;
30872;SDS011;17579;42.690;2.586;2023-10-19T05:46:39;150.25;;;13.63;;
30872;SDS011;17579;42.690;2.586;2023-10-19T05:49:08;428.25;;;27.20;;
30872;SDS011;17579;42.690;2.586;2023-10-19T05:51:45;601.85;;;35.00;;
30872;SDS011;17579;42.690;2.586;2023-10-19T05:54:10;452.40;;;30.60;;
30872;SDS011;17579;42.690;2.586;2023-10-19T05:56:43;620.35;;;38.05;;
30872;SDS011;17579;42.690;2.586;2023-10-19T05:59:11;412.25;;;27.92;;
30872;SDS011;17579;42.690;2.586;2023-10-19T06:01:39;306.42;;;19.63;;
30872;SDS011;17579;42.690;2.586;2023-10-19T06:04:09;288.50;;;20.10;;
30872;SDS011;17579;42.690;2.586;2023-10-19T06:06:36;211.88;;;17.60;;
30872;SDS011;17579;42.690;2.586;2023-10-19T06:09:01;265.98;;;19.13;;
30872;SDS011;17579;42.690;2.586;2023-10-19T06:11:28;168.90;;;14.25;;
30872;SDS011;17579;42.690;2.586;2023-10-19T06:13:57;225.52;;;16.02;;
30872;SDS011;17579;42.690;2.586;2023-10-19T06:16:23;300.73;;;22.52;;
30872;SDS011;17579;42.690;2.586;2023-10-19T06:18:49;198.25;;;15.32;;
30872;SDS011;17579;42.690;2.586;2023-10-19T06:21:20;138.20;;;12.57;;
30872;SDS011;17579;42.690;2.586;2023-10-19T06:23:54;146.48;;;13.90;;
30872;SDS011;17579;42.690;2.586;2023-10-19T06:26:24;85.85;;;8.48;;
30872;SDS011;17579;42.690;2.586;2023-10-19T06:29:20;75.25;;;9.00;;
30872;SDS011;17579;42.690;2.586;2023-10-19T06:31:44;68.70;;;10.20;;
30872;SDS011;17579;42.690;2.586;2023-10-19T06:34:17;50.05;;;10.00;;
30872;SDS011;17579;42.690;2.586;2023-10-19T06:36:44;46.63;;;9.73;;
30872;SDS011;17579;42.690;2.586;2023-10-19T06:39:20;108.70;;;13.02;;
30872;SDS011;17579;42.690;2.586;2023-10-19T06:41:46;139.52;;;14.48;;
30872;SDS011;17579;42.690;2.586;2023-10-19T06:44:15;142.05;;;14.65;;
30872;SDS011;17579;42.690;2.586;2023-10-19T06:46:42;81.10;;;10.60;;
30872;SDS011;17579;42.690;2.586;2023-10-19T06:49:11;51.78;;;9.70;;
30872;SDS011;17579;42.690;2.586;2023-10-19T06:51:37;61.15;;;10.05;;
30872;SDS011;17579;42.690;2.586;2023-10-19T06:54:03;131.38;;;12.95;;
30872;SDS011;17579;42.690;2.586;2023-10-19T06:56:32;76.60;;;9.43;;
30872;SDS011;17579;42.690;2.586;2023-10-19T06:59:02;62.00;;;9.75;;
30872;SDS011;17579;42.690;2.586;2023-10-19T07:01:30;86.10;;;10.25;;
30872;SDS011;17579;42.690;2.586;2023-10-19T07:03:57;75.53;;;10.25;;
30872;SDS011;17579;42.690;2.586;2023-10-19T07:06:30;89.28;;;10.02;;
30872;SDS011;17579;42.690;2.586;2023-10-19T07:08:56;25.10;;;6.95;;
30872;SDS011;17579;42.690;2.586;2023-10-19T07:11:31;20.98;;;8.50;;
30872;SDS011;17579;42.690;2.586;2023-10-19T07:13:59;12.63;;;7.40;;
30872;SDS011;17579;42.690;2.586;2023-10-19T07:16:25;15.48;;;6.60;;
30872;SDS011;17579;42.690;2.586;2023-10-19T07:18:51;13.63;;;6.80;;
30872;SDS011;17579;42.690;2.586;2023-10-19T07:21:22;18.13;;;7.28;;
30872;SDS011;17579;42.690;2.586;2023-10-19T07:23:57;14.98;;;7.20;;
30872;SDS011;17579;42.690;2.586;2023-10-19T07:32:13;15.60;;;6.43;;
30872;SDS011;17579;42.690;2.586;2023-10-19T07:34:42;14.20;;;5.82;;
30872;SDS011;17579;42.690;2.586;2023-10-19T07:37:14;10.40;;;5.28;;
30872;SDS011;17579;42.690;2.586;2023-10-19T07:43:20;12.85;;;5.55;;
30872;SDS011;17579;42.690;2.586;2023-10-19T07:45:49;16.13;;;6.05;;
30872;SDS011;17579;42.690;2.586;2023-10-19T07:48:20;15.63;;;6.25;;
30872;SDS011;17579;42.690;2.586;2023-10-19T07:50:45;10.60;;;4.03;;
30872;SDS011;17579;42.690;2.586;2023-10-19T07:53:14;12.65;;;4.50;;
30872;SDS011;17579;42.690;2.586;2023-10-19T07:55:50;11.30;;;4.78;;
30872;SDS011;17579;42.690;2.586;2023-10-19T07:58:24;8.77;;;5.22;;
30872;SDS011;17579;42.690;2.586;2023-10-19T08:00:59;10.55;;;5.03;;
30872;SDS011;17579;42.690;2.586;2023-10-19T08:03:25;11.23;;;5.32;;
30872;SDS011;17579;42.690;2.586;2023-10-19T08:05:56;14.13;;;4.88;;
30872;SDS011;17579;42.690;2.586;2023-10-19T08:08:22;12.70;;;4.70;;
30872;SDS011;17579;42.690;2.586;2023-10-19T08:11:08;15.40;;;3.90;;
30872;SDS011;17579;42.690;2.586;2023-10-19T08:13:34;8.52;;;3.60;;
30872;SDS011;17579;42.690;2.586;2023-10-19T08:15:59;8.30;;;3.90;;
30872;SDS011;17579;42.690;2.586;2023-10-19T08:21:19;10.25;;;4.45;;
30872;SDS011;17579;42.690;2.586;2023-10-19T08:23:48;15.63;;;5.78;;
30872;SDS011;17579;42.690;2.586;2023-10-19T08:26:14;12.57;;;4.40;;
30872;SDS011;17579;42.690;2.586;2023-10-19T08:28:44;11.45;;;4.47;;
30872;SDS011;17579;42.690;2.586;2023-10-19T08:31:19;13.38;;;4.97;;
30872;SDS011;17579;42.690;2.586;2023-10-19T08:33:51;9.73;;;4.10;;
30872;SDS011;17579;42.690;2.586;2023-10-19T08:36:22;9.57;;;4.43;;
30872;SDS011;17579;42.690;2.586;2023-10-19T08:39:17;10.32;;;3.47;;
30872;SDS011;17579;42.690;2.586;2023-10-19T08:41:45;10.15;;;4.03;;
30872;SDS011;17579;42.690;2.586;2023-10-19T08:44:14;9.73;;;4.10;;
30872;SDS011;17579;42.690;2.586;2023-10-19T08:47:03;9.18;;;3.72;;
30872;SDS011;17579;42.690;2.586;2023-10-19T08:49:43;12.90;;;4.72;;
30872;SDS011;17579;42.690;2.586;2023-10-19T08:52:09;9.32;;;4.63;;
30872;SDS011;17579;42.690;2.586;2023-10-19T08:54:35;9.00;;;4.50;;
30872;SDS011;17579;42.690;2.586;2023-10-19T08:57:04;10.80;;;4.10;;
30872;SDS011;17579;42.690;2.586;2023-10-19T08:59:30;9.27;;;3.65;;
30872;SDS011;17579;42.690;2.586;2023-10-19T09:02:00;8.15;;;3.33;;
30872;SDS011;17579;42.690;2.586;2023-10-19T09:04:28;8.25;;;2.80;;
30872;SDS011;17579;42.690;2.586;2023-10-19T09:06:59;6.85;;;3.17;;
30872;SDS011;17579;42.690;2.586;2023-10-19T09:09:26;7.47;;;3.63;;
30872;SDS011;17579;42.690;2.586;2023-10-19T09:11:57;7.80;;;3.50;;
30872;SDS011;17579;42.690;2.586;2023-10-19T09:14:31;6.72;;;2.95;;
30872;SDS011;17579;42.690;2.586;2023-10-19T09:16:59;3.60;;;2.25;;
30872;SDS011;17579;42.690;2.586;2023-10-19T09:19:35;4.38;;;2.15;;
30872;SDS011;17579;42.690;2.586;2023-10-19T09:22:02;7.07;;;2.70;;
30872;SDS011;17579;42.690;2.586;2023-10-19T09:24:29;6.13;;;3.40;;
30872;SDS011;17579;42.690;2.586;2023-10-19T09:26:55;7.00;;;3.38;;
30872;SDS011;17579;42.690;2.586;2023-10-19T09:29:23;9.13;;;3.38;;
30872;SDS011;17579;42.690;2.586;2023-10-19T09:31:50;7.70;;;3.22;;
30872;SDS011;17579;42.690;2.586;2023-10-19T09:34:19;6.40;;;3.63;;
30872;SDS011;17579;42.690;2.586;2023-10-19T09:36:48;8.30;;;2.78;;
30872;SDS011;17579;42.690;2.586;2023-10-19T09:39:17;8.95;;;3.08;;
30872;SDS011;17579;42.690;2.586;2023-10-19T09:41:49;6.75;;;2.65;;
30872;SDS011;17579;42.690;2.586;2023-10-19T09:44:20;7.93;;;2.90;;
30872;SDS011;17579;42.690;2.586;2023-10-19T09:46:50;4.65;;;2.83;;
30872;SDS011;17579;42.690;2.586;2023-10-19T09:49:28;8.50;;;3.55;;
30872;SDS011;17579;42.690;2.586;2023-10-19T09:52:03;10.10;;;2.90;;
30872;SDS011;17579;42.690;2.586;2023-10-19T09:57:21;7.45;;;3.70;;
30872;SDS011;17579;42.690;2.586;2023-10-19T10:00:13;14.45;;;3.97;;
30872;SDS011;17579;42.690;2.586;2023-10-19T10:02:48;10.77;;;4.18;;
30872;SDS011;17579;42.690;2.586;2023-10-19T10:10:32;7.43;;;2.95;;
30872;SDS011;17579;42.690;2.586;2023-10-19T10:15:55;10.68;;;3.53;;
30872;SDS011;17579;42.690;2.586;2023-10-19T10:18:30;8.40;;;3.45;;
30872;SDS011;17579;42.690;2.586;2023-10-19T10:26:03;13.35;;;4.72;;
30872;SDS011;17579;42.690;2.586;2023-10-19T10:28:31;10.35;;;3.92;;
30872;SDS011;17579;42.690;2.586;2023-10-19T10:36:05;12.85;;;4.10;;
30872;SDS011;17579;42.690;2.586;2023-10-19T10:38:39;10.02;;;4.00;;
30872;SDS011;17579;42.690;2.586;2023-10-19T10:41:08;8.80;;;3.22;;
30872;SDS011;17579;42.690;2.586;2023-10-19T10:43:47;5.60;;;2.95;;
30872;SDS011;17579;42.690;2.586;2023-10-19T10:46:33;6.00;;;2.58;;
30872;SDS011;17579;42.690;2.586;2023-10-19T10:49:08;4.43;;;2.60;;
30872;SDS011;17579;42.690;2.586;2023-10-19T10:52:36;3.15;;;1.40;;
30872;SDS011;17579;42.690;2.586;2023-10-19T10:55:07;1.88;;;1.23;;
30872;SDS011;17579;42.690;2.586;2023-10-19T10:57:36;4.43;;;1.90;;
30872;SDS011;17579;42.690;2.586;2023-10-19T11:00:10;7.93;;;2.83;;
30872;SDS011;17579;42.690;2.586;2023-10-19T11:02:41;6.32;;;2.92;;
30872;SDS011;17579;42.690;2.586;2023-10-19T11:05:08;6.63;;;2.80;;
30872;SDS011;17579;42.690;2.586;2023-10-19T11:07:38;8.75;;;2.90;;
30872;SDS011;17579;42.690;2.586;2023-10-19T11:12:52;8.68;;;3.45;;
30872;SDS011;17579;42.690;2.586;2023-10-19T11:15:25;6.28;;;3.00;;
30872;SDS011;17579;42.690;2.586;2023-10-19T11:17:54;12.75;;;3.33;;
30872;SDS011;17579;42.690;2.586;2023-10-19T11:20:29;9.23;;;3.60;;
30872;SDS011;17579;42.690;2.586;2023-10-19T11:23:18;7.80;;;3.63;;
30872;SDS011;17579;42.690;2.586;2023-10-19T11:25:44;8.07;;;3.05;;
30872;SDS011;17579;42.690;2.586;2023-10-19T11:28:16;7.40;;;3.13;;
30872;SDS011;17579;42.690;2.586;2023-10-19T11:30:47;9.93;;;3.58;;
30872;SDS011;17579;42.690;2.586;2023-10-19T11:33:16;11.63;;;3.55;;
30872;SDS011;17579;42.690;2.586;2023-10-19T11:35:49;7.95;;;3.67;;
30872;SDS011;17579;42.690;2.586;2023-10-19T11:38:20;9.05;;;3.90;;
30872;SDS011;17579;42.690;2.586;2023-10-19T11:40:49;10.05;;;3.88;;
30872;SDS011;17579;42.690;2.586;2023-10-19T11:43:27;7.18;;;3.28;;
30872;SDS011;17579;42.690;2.586;2023-10-19T11:45:52;7.88;;;3.35;;
30872;SDS011;17579;42.690;2.586;2023-10-19T11:51:32;6.60;;;2.90;;
30872;SDS011;17579;42.690;2.586;2023-10-19T11:56:56;6.70;;;2.75;;
30872;SDS011;17579;42.690;2.586;2023-10-19T11:59:24;7.75;;;2.95;;
30872;SDS011;17579;42.690;2.586;2023-10-19T12:02:02;7.85;;;2.83;;
30872;SDS011;17579;42.690;2.586;2023-10-19T12:04:29;6.10;;;2.83;;
30872;SDS011;17579;42.690;2.586;2023-10-19T12:06:55;9.52;;;3.80;;
30872;SDS011;17579;42.690;2.586;2023-10-19T12:09:24;6.13;;;2.83;;
30872;SDS011;17579;42.690;2.586;2023-10-19T12:11:53;8.70;;;3.88;;
30872;SDS011;17579;42.690;2.586;2023-10-19T12:14:33;14.68;;;7.05;;
30872;SDS011;17579;42.690;2.586;2023-10-19T12:17:02;12.27;;;5.18;;
30872;SDS011;17579;42.690;2.586;2023-10-19T12:19:33;9.40;;;3.25;;
30872;SDS011;17579;42.690;2.586;2023-10-19T12:22:00;5.45;;;3.35;;
30872;SDS011;17579;42.690;2.586;2023-10-19T12:24:33;8.18;;;5.55;;
30872;SDS011;17579;42.690;2.586;2023-10-19T12:27:06;15.32;;;4.30;;
30872;SDS011;17579;42.690;2.586;2023-10-19T12:29:35;10.43;;;3.60;;
30872;SDS011;17579;42.690;2.586;2023-10-19T12:32:04;11.00;;;3.95;;
30872;SDS011;17579;42.690;2.586;2023-10-19T12:34:30;9.98;;;3.72;;
30872;SDS011;17579;42.690;2.586;2023-10-19T12:37:04;9.73;;;3.95;;
30872;SDS011;17579;42.690;2.586;2023-10-19T12:39:29;11.85;;;3.25;;
30872;SDS011;17579;42.690;2.586;2023-10-19T12:41:56;6.95;;;2.95;;
30872;SDS011;17579;42.690;2.586;2023-10-19T12:44:22;4.93;;;2.83;;
30872;SDS011;17579;42.690;2.586;2023-10-19T12:46:48;9.05;;;2.90;;
30872;SDS011;17579;42.690;2.586;2023-10-19T12:49:22;8.75;;;2.78;;
30872;SDS011;17579;42.690;2.586;2023-10-19T12:51:53;7.47;;;3.30;;
30872;SDS011;17579;42.690;2.586;2023-10-19T12:54:19;11.93;;;3.42;;
30872;SDS011;17579;42.690;2.586;2023-10-19T12:56:45;7.82;;;3.10;;
30872;SDS011;17579;42.690;2.586;2023-10-19T12:59:14;8.43;;;2.35;;
30872;SDS011;17579;42.690;2.586;2023-10-19T13:01:43;7.80;;;2.83;;
30872;SDS011;17579;42.690;2.586;2023-10-19T13:04:15;5.75;;;1.98;;
30872;SDS011;17579;42.690;2.586;2023-10-19T13:06:44;4.40;;;1.98;;
30872;SDS011;17579;42.690;2.586;2023-10-19T13:09:26;4.32;;;2.08;;
30872;SDS011;17579;42.690;2.586;2023-10-19T13:12:05;5.60;;;2.33;;
30872;SDS011;17579;42.690;2.586;2023-10-19T13:14:45;4.30;;;2.33;;
30872;SDS011;17579;42.690;2.586;2023-10-19T13:17:14;5.68;;;2.17;;
30872;SDS011;17579;42.690;2.586;2023-10-19T13:20:05;2.17;;;1.80;;
30872;SDS011;17579;42.690;2.586;2023-10-19T13:22:44;2.72;;;1.77;;
30872;SDS011;17579;42.690;2.586;2023-10-19T13:25:22;3.88;;;2.08;;
30872;SDS011;17579;42.690;2.586;2023-10-19T13:27:51;6.25;;;2.55;;
30872;SDS011;17579;42.690;2.586;2023-10-19T13:30:18;4.70;;;2.38;;
30872;SDS011;17579;42.690;2.586;2023-10-19T13:32:48;3.00;;;1.90;;
30872;SDS011;17579;42.690;2.586;2023-10-19T13:35:14;4.95;;;1.30;;
30872;SDS011;17579;42.690;2.586;2023-10-19T13:37:40;2.15;;;0.88;;
30872;SDS011;17579;42.690;2.586;2023-10-19T13:40:06;1.35;;;1.15;;
30872;SDS011;17579;42.690;2.586;2023-10-19T13:42:38;1.98;;;1.13;;
30872;SDS011;17579;42.690;2.586;2023-10-19T13:45:07;2.60;;;1.35;;
30872;SDS011;17579;42.690;2.586;2023-10-19T13:47:46;4.40;;;1.38;;
30872;SDS011;17579;42.690;2.586;2023-10-19T13:50:11;3.35;;;1.48;;
30872;SDS011;17579;42.690;2.586;2023-10-19T13:52:40;3.97;;;1.40;;
30872;SDS011;17579;42.690;2.586;2023-10-19T13:55:09;4.22;;;2.00;;
30872;SDS011;17579;42.690;2.586;2023-10-19T13:57:37;7.65;;;2.20;;
30872;SDS011;17579;42.690;2.586;2023-10-19T14:00:05;3.78;;;2.00;;
30872;SDS011;17579;42.690;2.586;2023-10-19T14:02:45;4.20;;;1.60;;
30872;SDS011;17579;42.690;2.586;2023-10-19T14:05:12;4.50;;;1.73;;
30872;SDS011;17579;42.690;2.586;2023-10-19T14:07:38;5.60;;;2.45;;
30872;SDS011;17579;42.690;2.586;2023-10-19T14:10:05;5.60;;;1.77;;
30872;SDS011;17579;42.690;2.586;2023-10-19T14:12:32;4.07;;;2.05;;
30872;SDS011;17579;42.690;2.586;2023-10-19T14:15:07;3.67;;;1.80;;
30872;SDS011;17579;42.690;2.586;2023-10-19T14:17:36;4.47;;;1.85;;
30872;SDS011;17579;42.690;2.586;2023-10-19T14:20:05;5.57;;;1.80;;
30872;SDS011;17579;42.690;2.586;2023-10-19T14:22:43;3.38;;;1.40;;
30872;SDS011;17579;42.690;2.586;2023-10-19T14:25:14;3.70;;;1.85;;
30872;SDS011;17579;42.690;2.586;2023-10-19T14:27:41;4.15;;;1.73;;
30872;SDS011;17579;42.690;2.586;2023-10-19T14:30:14;3.88;;;1.73;;
30872;SDS011;17579;42.690;2.586;2023-10-19T14:32:43;8.85;;;1.92;;
30872;SDS011;17579;42.690;2.586;2023-10-19T14:35:10;4.45;;;2.15;;
30872;SDS011;17579;42.690;2.586;2023-10-19T14:37:49;5.65;;;2.22;;
30872;SDS011;17579;42.690;2.586;2023-10-19T14:40:20;7.32;;;2.83;;
30872;SDS011;17579;42.690;2.586;2023-10-19T14:42:52;7.95;;;2.80;;
30872;SDS011;17579;42.690;2.586;2023-10-19T14:45:31;4.38;;;2.22;;
30872;SDS011;17579;42.690;2.586;2023-10-19T14:47:58;7.68;;;2.67;;
30872;SDS011;17579;42.690;2.586;2023-10-19T14:50:24;4.25;;;2.67;;
30872;SDS011;17579;42.690;2.586;2023-10-19T14:53:13;6.38;;;2.75;;
30872;SDS011;17579;42.690;2.586;2023-10-19T14:55:38;5.78;;;2.30;;
30872;SDS011;17579;42.690;2.586;2023-10-19T14:58:08;7.95;;;2.17;;
30872;SDS011;17579;42.690;2.586;2023-10-19T15:01:05;6.25;;;2.67;;
30872;SDS011;17579;42.690;2.586;2023-10-19T15:03:34;2.85;;;1.63;;
30872;SDS011;17579;42.690;2.586;2023-10-19T15:06:01;4.20;;;1.92;;
30872;SDS011;17579;42.690;2.586;2023-10-19T15:08:29;2.60;;;1.55;;
30872;SDS011;17579;42.690;2.586;2023-10-19T15:10:56;3.60;;;1.75;;
30872;SDS011;17579;42.690;2.586;2023-10-19T15:13:25;1.80;;;1.40;;
30872;SDS011;17579;42.690;2.586;2023-10-19T15:15:53;3.10;;;1.33;;
30872;SDS011;17579;42.690;2.586;2023-10-19T15:18:22;4.10;;;1.55;;
30872;SDS011;17579;42.690;2.586;2023-10-19T15:20:48;3.33;;;1.40;;
30872;SDS011;17579;42.690;2.586;2023-10-19T15:23:34;3.63;;;1.40;;
30872;SDS011;17579;42.690;2.586;2023-10-19T15:26:20;2.45;;;1.50;;
30872;SDS011;17579;42.690;2.586;2023-10-19T15:28:58;2.78;;;1.58;;
30872;SDS011;17579;42.690;2.586;2023-10-19T15:31:24;4.28;;;1.42;;
30872;SDS011;17579;42.690;2.586;2023-10-19T15:33:50;1.27;;;1.10;;
30872;SDS011;17579;42.690;2.586;2023-10-19T15:36:16;2.42;;;1.10;;
30872;SDS011;17579;42.690;2.586;2023-10-19T15:38:42;2.67;;;1.15;;
30872;SDS011;17579;42.690;2.586;2023-10-19T15:41:08;1.88;;;1.35;;
30872;SDS011;17579;42.690;2.586;2023-10-19T15:43:35;8.70;;;1.17;;
30872;SDS011;17579;42.690;2.586;2023-10-19T15:46:00;5.90;;;1.27;;
30872;SDS011;17579;42.690;2.586;2023-10-19T15:48:28;2.33;;;1.30;;
30872;SDS011;17579;42.690;2.586;2023-10-19T15:51:17;5.05;;;1.50;;
30872;SDS011;17579;42.690;2.586;2023-10-19T15:53:42;3.30;;;1.30;;
30872;SDS011;17579;42.690;2.586;2023-10-19T15:56:17;3.38;;;1.38;;
30872;SDS011;17579;42.690;2.586;2023-10-19T15:58:43;2.10;;;1.40;;
30872;SDS011;17579;42.690;2.586;2023-10-19T16:01:17;1.52;;;0.70;;
30872;SDS011;17579;42.690;2.586;2023-10-19T16:03:48;1.15;;;1.00;;
30872;SDS011;17579;42.690;2.586;2023-10-19T16:09:00;2.15;;;1.50;;
30872;SDS011;17579;42.690;2.586;2023-10-19T16:11:28;8.68;;;1.10;;
30872;SDS011;17579;42.690;2.586;2023-10-19T16:13:54;1.48;;;0.98;;